sensor_id;sensor_type;location;lat;lon;timestamp;P1;durP1;ratioP1;P2;durP2;ratioP2
27758;SDS011;15148;48.972;12.794;2023-05-08T00:01:40;6.28;;;4.82;;
27758;SDS011;15148;48.972;12.794;2023-05-08T00:06:42;4.53;;;4.13;;
27758;SDS011;15148;48.972;12.794;2023-05-08T00:11:44;5.13;;;4.00;;
27758;SDS011;15148;48.972;12.794;2023-05-08T00:16:46;6.32;;;4.43;;
27758;SDS011;15148;48.972;12.794;2023-05-08T00:21:47;8.23;;;4.53;;
27758;SDS011;15148;48.972;12.794;2023-05-08T00:26:49;5.15;;;4.25;;
27758;SDS011;15148;48.972;12.794;2023-05-08T00:31:51;5.28;;;4.47;;
27758;SDS011;15148;48.972;12.794;2023-05-08T00:36:54;5.38;;;4.88;;
27758;SDS011;15148;48.972;12.794;2023-05-08T00:41:56;5.40;;;4.90;;
27758;SDS011;15148;48.972;12.794;2023-05-08T00:46:58;6.53;;;5.53;;
27758;SDS011;15148;48.972;12.794;2023-05-08T00:52:01;6.28;;;5.78;;
27758;SDS011;15148;48.972;12.794;2023-05-08T00:57:08;7.03;;;6.35;;
27758;SDS011;15148;48.972;12.794;2023-05-08T01:02:10;7.63;;;6.32;;
27758;SDS011;15148;48.972;12.794;2023-05-08T01:07:13;7.63;;;6.82;;
27758;SDS011;15148;48.972;12.794;2023-05-08T01:13:07;7.57;;;6.88;;
27758;SDS011;15148;48.972;12.794;2023-05-08T01:17:56;7.82;;;6.85;;
27758;SDS011;15148;48.972;12.794;2023-05-08T01:34:02;6.07;;;5.53;;
27758;SDS011;15148;48.972;12.794;2023-05-08T01:44:32;7.28;;;6.55;;
27758;SDS011;15148;48.972;12.794;2023-05-08T01:49:39;8.38;;;7.03;;
27758;SDS011;15148;48.972;12.794;2023-05-08T01:54:52;10.02;;;8.90;;
27758;SDS011;15148;48.972;12.794;2023-05-08T01:59:59;7.60;;;6.90;;
27758;SDS011;15148;48.972;12.794;2023-05-08T02:05:10;6.55;;;5.95;;
27758;SDS011;15148;48.972;12.794;2023-05-08T02:10:14;6.90;;;6.30;;
27758;SDS011;15148;48.972;12.794;2023-05-08T02:15:19;9.13;;;6.90;;
27758;SDS011;15148;48.972;12.794;2023-05-08T02:20:22;7.97;;;6.63;;
27758;SDS011;15148;48.972;12.794;2023-05-08T02:25:25;7.05;;;6.35;;
27758;SDS011;15148;48.972;12.794;2023-05-08T02:30:29;8.52;;;6.35;;
27758;SDS011;15148;48.972;12.794;2023-05-08T02:35:31;8.15;;;6.18;;
27758;SDS011;15148;48.972;12.794;2023-05-08T02:40:35;7.38;;;6.47;;
27758;SDS011;15148;48.972;12.794;2023-05-08T02:45:40;8.05;;;7.35;;
27758;SDS011;15148;48.972;12.794;2023-05-08T02:50:55;7.80;;;7.10;;
27758;SDS011;15148;48.972;12.794;2023-05-08T03:01:13;9.27;;;7.57;;
27758;SDS011;15148;48.972;12.794;2023-05-08T03:06:22;7.75;;;7.05;;
27758;SDS011;15148;48.972;12.794;2023-05-08T03:11:27;7.13;;;6.43;;
27758;SDS011;15148;48.972;12.794;2023-05-08T03:16:40;8.60;;;7.25;;
27758;SDS011;15148;48.972;12.794;2023-05-08T03:21:45;7.85;;;6.88;;
27758;SDS011;15148;48.972;12.794;2023-05-08T03:26:49;8.95;;;7.43;;
27758;SDS011;15148;48.972;12.794;2023-05-08T03:31:51;8.68;;;7.80;;
27758;SDS011;15148;48.972;12.794;2023-05-08T03:36:54;8.55;;;7.63;;
27758;SDS011;15148;48.972;12.794;2023-05-08T03:41:56;7.95;;;7.15;;
27758;SDS011;15148;48.972;12.794;2023-05-08T03:46:58;7.15;;;6.43;;
27758;SDS011;15148;48.972;12.794;2023-05-08T03:52:02;8.52;;;7.53;;
27758;SDS011;15148;48.972;12.794;2023-05-08T03:57:05;8.07;;;7.05;;
27758;SDS011;15148;48.972;12.794;2023-05-08T04:02:11;9.05;;;7.47;;
27758;SDS011;15148;48.972;12.794;2023-05-08T04:12:38;8.20;;;6.88;;
27758;SDS011;15148;48.972;12.794;2023-05-08T04:17:47;10.02;;;7.18;;
27758;SDS011;15148;48.972;12.794;2023-05-08T04:22:53;8.85;;;6.93;;
27758;SDS011;15148;48.972;12.794;2023-05-08T04:27:57;8.48;;;7.40;;
27758;SDS011;15148;48.972;12.794;2023-05-08T04:33:01;7.70;;;7.00;;
27758;SDS011;15148;48.972;12.794;2023-05-08T04:38:05;7.68;;;6.88;;
27758;SDS011;15148;48.972;12.794;2023-05-08T04:43:07;8.98;;;8.18;;
27758;SDS011;15148;48.972;12.794;2023-05-08T04:48:11;8.45;;;6.97;;
27758;SDS011;15148;48.972;12.794;2023-05-08T04:53:13;8.85;;;7.63;;
27758;SDS011;15148;48.972;12.794;2023-05-08T04:58:15;10.40;;;9.30;;
27758;SDS011;15148;48.972;12.794;2023-05-08T05:03:17;9.40;;;8.18;;
27758;SDS011;15148;48.972;12.794;2023-05-08T05:08:19;8.57;;;7.78;;
27758;SDS011;15148;48.972;12.794;2023-05-08T05:13:21;10.43;;;9.43;;
27758;SDS011;15148;48.972;12.794;2023-05-08T05:18:23;9.85;;;8.88;;
27758;SDS011;15148;48.972;12.794;2023-05-08T05:23:28;10.60;;;9.52;;
27758;SDS011;15148;48.972;12.794;2023-05-08T05:28:30;13.30;;;11.65;;
27758;SDS011;15148;48.972;12.794;2023-05-08T05:33:33;14.38;;;11.80;;
27758;SDS011;15148;48.972;12.794;2023-05-08T05:38:34;16.05;;;12.02;;
27758;SDS011;15148;48.972;12.794;2023-05-08T05:43:38;13.40;;;11.93;;
27758;SDS011;15148;48.972;12.794;2023-05-08T05:48:40;13.88;;;12.45;;
27758;SDS011;15148;48.972;12.794;2023-05-08T05:53:43;15.70;;;13.55;;
27758;SDS011;15148;48.972;12.794;2023-05-08T05:58:45;16.67;;;13.15;;
27758;SDS011;15148;48.972;12.794;2023-05-08T06:03:47;16.70;;;12.55;;
27758;SDS011;15148;48.972;12.794;2023-05-08T06:08:49;13.60;;;12.20;;
27758;SDS011;15148;48.972;12.794;2023-05-08T06:13:51;13.65;;;12.35;;
27758;SDS011;15148;48.972;12.794;2023-05-08T06:18:53;14.68;;;11.57;;
27758;SDS011;15148;48.972;12.794;2023-05-08T06:23:54;15.52;;;13.55;;
27758;SDS011;15148;48.972;12.794;2023-05-08T06:28:56;15.55;;;13.75;;
27758;SDS011;15148;48.972;12.794;2023-05-08T06:33:58;14.23;;;12.73;;
27758;SDS011;15148;48.972;12.794;2023-05-08T06:39:00;13.98;;;12.65;;
27758;SDS011;15148;48.972;12.794;2023-05-08T06:44:02;12.68;;;11.43;;
27758;SDS011;15148;48.972;12.794;2023-05-08T06:49:04;15.20;;;13.63;;
27758;SDS011;15148;48.972;12.794;2023-05-08T06:54:05;14.18;;;12.77;;
27758;SDS011;15148;48.972;12.794;2023-05-08T06:59:08;15.45;;;13.82;;
27758;SDS011;15148;48.972;12.794;2023-05-08T07:04:10;15.70;;;13.93;;
27758;SDS011;15148;48.972;12.794;2023-05-08T07:09:12;15.95;;;14.35;;
27758;SDS011;15148;48.972;12.794;2023-05-08T07:14:13;17.55;;;13.88;;
27758;SDS011;15148;48.972;12.794;2023-05-08T07:19:15;16.30;;;14.70;;
27758;SDS011;15148;48.972;12.794;2023-05-08T07:24:17;16.25;;;14.55;;
27758;SDS011;15148;48.972;12.794;2023-05-08T07:29:19;16.42;;;13.77;;
27758;SDS011;15148;48.972;12.794;2023-05-08T07:34:21;18.60;;;15.43;;
27758;SDS011;15148;48.972;12.794;2023-05-08T07:39:23;15.82;;;14.27;;
27758;SDS011;15148;48.972;12.794;2023-05-08T07:44:24;17.13;;;15.27;;
27758;SDS011;15148;48.972;12.794;2023-05-08T07:49:26;17.13;;;15.40;;
27758;SDS011;15148;48.972;12.794;2023-05-08T07:54:28;18.80;;;17.00;;
27758;SDS011;15148;48.972;12.794;2023-05-08T07:59:30;16.58;;;14.90;;
27758;SDS011;15148;48.972;12.794;2023-05-08T08:04:32;20.35;;;17.45;;
27758;SDS011;15148;48.972;12.794;2023-05-08T08:09:33;16.55;;;14.95;;
27758;SDS011;15148;48.972;12.794;2023-05-08T08:14:35;17.58;;;15.23;;
27758;SDS011;15148;48.972;12.794;2023-05-08T08:19:37;17.83;;;15.75;;
27758;SDS011;15148;48.972;12.794;2023-05-08T08:24:39;20.50;;;17.08;;
27758;SDS011;15148;48.972;12.794;2023-05-08T08:29:41;17.88;;;16.00;;
27758;SDS011;15148;48.972;12.794;2023-05-08T08:34:43;19.20;;;17.10;;
27758;SDS011;15148;48.972;12.794;2023-05-08T08:39:45;18.73;;;16.73;;
27758;SDS011;15148;48.972;12.794;2023-05-08T08:44:48;15.52;;;13.90;;
27758;SDS011;15148;48.972;12.794;2023-05-08T08:49:50;18.25;;;16.35;;
27758;SDS011;15148;48.972;12.794;2023-05-08T08:54:54;15.55;;;13.45;;
27758;SDS011;15148;48.972;12.794;2023-05-08T08:59:57;15.55;;;14.00;;
27758;SDS011;15148;48.972;12.794;2023-05-08T09:05:04;16.08;;;14.48;;
27758;SDS011;15148;48.972;12.794;2023-05-08T09:10:06;15.73;;;14.23;;
27758;SDS011;15148;48.972;12.794;2023-05-08T09:15:15;15.00;;;12.93;;
27758;SDS011;15148;48.972;12.794;2023-05-08T09:20:17;13.30;;;12.00;;
27758;SDS011;15148;48.972;12.794;2023-05-08T09:25:19;15.15;;;12.93;;
27758;SDS011;15148;48.972;12.794;2023-05-08T09:30:21;14.25;;;12.95;;
27758;SDS011;15148;48.972;12.794;2023-05-08T09:35:23;12.68;;;11.48;;
27758;SDS011;15148;48.972;12.794;2023-05-08T09:40:36;15.95;;;14.40;;
27758;SDS011;15148;48.972;12.794;2023-05-08T09:45:38;15.90;;;14.40;;
27758;SDS011;15148;48.972;12.794;2023-05-08T09:50:41;14.63;;;13.23;;
27758;SDS011;15148;48.972;12.794;2023-05-08T09:55:47;15.63;;;13.95;;
27758;SDS011;15148;48.972;12.794;2023-05-08T10:00:49;16.02;;;14.40;;
27758;SDS011;15148;48.972;12.794;2023-05-08T10:05:51;14.57;;;13.05;;
27758;SDS011;15148;48.972;12.794;2023-05-08T10:10:53;13.90;;;12.50;;
27758;SDS011;15148;48.972;12.794;2023-05-08T10:16:13;15.63;;;13.48;;
27758;SDS011;15148;48.972;12.794;2023-05-08T10:21:16;13.23;;;11.88;;
27758;SDS011;15148;48.972;12.794;2023-05-08T10:26:24;12.45;;;11.15;;
27758;SDS011;15148;48.972;12.794;2023-05-08T10:31:33;15.43;;;13.88;;
27758;SDS011;15148;48.972;12.794;2023-05-08T10:36:36;13.50;;;12.15;;
27758;SDS011;15148;48.972;12.794;2023-05-08T10:41:39;13.25;;;11.95;;
27758;SDS011;15148;48.972;12.794;2023-05-08T10:46:48;13.55;;;12.20;;
27758;SDS011;15148;48.972;12.794;2023-05-08T10:51:57;13.18;;;11.77;;
27758;SDS011;15148;48.972;12.794;2023-05-08T10:57:22;13.55;;;12.35;;
27758;SDS011;15148;48.972;12.794;2023-05-08T11:02:27;13.23;;;12.02;;
27758;SDS011;15148;48.972;12.794;2023-05-08T11:12:59;12.60;;;11.40;;
27758;SDS011;15148;48.972;12.794;2023-05-08T11:18:05;13.55;;;11.90;;
27758;SDS011;15148;48.972;12.794;2023-05-08T11:23:24;13.10;;;11.80;;
27758;SDS011;15148;48.972;12.794;2023-05-08T11:28:53;12.23;;;10.95;;
27758;SDS011;15148;48.972;12.794;2023-05-08T11:33:57;12.65;;;11.50;;
27758;SDS011;15148;48.972;12.794;2023-05-08T11:44:12;12.38;;;11.25;;
27758;SDS011;15148;48.972;12.794;2023-05-08T11:49:21;13.02;;;11.40;;
27758;SDS011;15148;48.972;12.794;2023-05-08T11:54:30;12.82;;;11.63;;
27758;SDS011;15148;48.972;12.794;2023-05-08T11:59:35;14.40;;;12.90;;
27758;SDS011;15148;48.972;12.794;2023-05-08T12:04:44;14.52;;;13.13;;
27758;SDS011;15148;48.972;12.794;2023-05-08T12:09:47;12.80;;;11.50;;
27758;SDS011;15148;48.972;12.794;2023-05-08T12:14:49;13.48;;;12.18;;
27758;SDS011;15148;48.972;12.794;2023-05-08T12:19:54;14.20;;;12.68;;
27758;SDS011;15148;48.972;12.794;2023-05-08T12:24:56;13.90;;;12.60;;
27758;SDS011;15148;48.972;12.794;2023-05-08T12:29:58;13.40;;;11.82;;
27758;SDS011;15148;48.972;12.794;2023-05-08T12:35:00;14.60;;;13.20;;
27758;SDS011;15148;48.972;12.794;2023-05-08T12:40:03;15.75;;;14.10;;
27758;SDS011;15148;48.972;12.794;2023-05-08T12:45:05;16.90;;;15.35;;
27758;SDS011;15148;48.972;12.794;2023-05-08T12:50:08;11.68;;;10.38;;
27758;SDS011;15148;48.972;12.794;2023-05-08T12:55:23;12.00;;;10.90;;
27758;SDS011;15148;48.972;12.794;2023-05-08T13:00:36;17.95;;;16.08;;
27758;SDS011;15148;48.972;12.794;2023-05-08T13:05:42;18.90;;;16.20;;
27758;SDS011;15148;48.972;12.794;2023-05-08T13:10:49;12.05;;;10.95;;
27758;SDS011;15148;48.972;12.794;2023-05-08T13:15:55;13.52;;;12.10;;
27758;SDS011;15148;48.972;12.794;2023-05-08T13:20:58;12.68;;;11.38;;
27758;SDS011;15148;48.972;12.794;2023-05-08T13:26:01;15.18;;;13.57;;
27758;SDS011;15148;48.972;12.794;2023-05-08T13:31:04;15.77;;;14.10;;
27758;SDS011;15148;48.972;12.794;2023-05-08T13:36:06;17.70;;;16.05;;
27758;SDS011;15148;48.972;12.794;2023-05-08T13:41:08;17.42;;;15.63;;
27758;SDS011;15148;48.972;12.794;2023-05-08T13:46:10;6.85;;;6.10;;
27758;SDS011;15148;48.972;12.794;2023-05-08T13:51:11;6.60;;;6.00;;
27758;SDS011;15148;48.972;12.794;2023-05-08T13:56:13;7.43;;;6.03;;
27758;SDS011;15148;48.972;12.794;2023-05-08T14:01:15;12.15;;;9.07;;
27758;SDS011;15148;48.972;12.794;2023-05-08T14:06:26;7.45;;;6.65;;
27758;SDS011;15148;48.972;12.794;2023-05-08T14:11:29;9.45;;;6.78;;
27758;SDS011;15148;48.972;12.794;2023-05-08T14:16:31;7.70;;;6.65;;
27758;SDS011;15148;48.972;12.794;2023-05-08T14:21:33;7.00;;;6.40;;
27758;SDS011;15148;48.972;12.794;2023-05-08T14:26:37;10.98;;;8.77;;
27758;SDS011;15148;48.972;12.794;2023-05-08T14:31:39;6.97;;;6.30;;
27758;SDS011;15148;48.972;12.794;2023-05-08T14:36:41;6.68;;;5.90;;
27758;SDS011;15148;48.972;12.794;2023-05-08T14:41:43;7.70;;;7.00;;
27758;SDS011;15148;48.972;12.794;2023-05-08T14:47:05;7.78;;;7.07;;
27758;SDS011;15148;48.972;12.794;2023-05-08T14:52:07;9.52;;;6.82;;
27758;SDS011;15148;48.972;12.794;2023-05-08T14:57:08;6.80;;;6.20;;
27758;SDS011;15148;48.972;12.794;2023-05-08T15:02:10;7.30;;;6.55;;
27758;SDS011;15148;48.972;12.794;2023-05-08T15:07:12;7.25;;;6.35;;
27758;SDS011;15148;48.972;12.794;2023-05-08T15:12:14;8.48;;;6.45;;
27758;SDS011;15148;48.972;12.794;2023-05-08T15:17:16;8.93;;;6.80;;
27758;SDS011;15148;48.972;12.794;2023-05-08T15:22:18;8.63;;;6.40;;
27758;SDS011;15148;48.972;12.794;2023-05-08T15:27:19;7.22;;;5.38;;
27758;SDS011;15148;48.972;12.794;2023-05-08T15:32:21;6.32;;;5.72;;
27758;SDS011;15148;48.972;12.794;2023-05-08T15:37:24;6.25;;;5.60;;
27758;SDS011;15148;48.972;12.794;2023-05-08T15:42:25;5.57;;;5.07;;
27758;SDS011;15148;48.972;12.794;2023-05-08T15:47:27;8.35;;;7.55;;
27758;SDS011;15148;48.972;12.794;2023-05-08T15:52:29;6.63;;;5.78;;
27758;SDS011;15148;48.972;12.794;2023-05-08T15:57:31;6.57;;;5.97;;
27758;SDS011;15148;48.972;12.794;2023-05-08T16:02:32;6.18;;;5.35;;
27758;SDS011;15148;48.972;12.794;2023-05-08T16:07:34;18.55;;;13.32;;
27758;SDS011;15148;48.972;12.794;2023-05-08T16:12:36;6.63;;;5.97;;
27758;SDS011;15148;48.972;12.794;2023-05-08T16:17:38;7.53;;;6.63;;
27758;SDS011;15148;48.972;12.794;2023-05-08T16:22:40;9.77;;;6.88;;
27758;SDS011;15148;48.972;12.794;2023-05-08T16:27:42;7.32;;;6.00;;
27758;SDS011;15148;48.972;12.794;2023-05-08T16:32:44;8.02;;;6.60;;
27758;SDS011;15148;48.972;12.794;2023-05-08T16:37:46;6.60;;;5.95;;
27758;SDS011;15148;48.972;12.794;2023-05-08T16:42:48;6.25;;;5.68;;
27758;SDS011;15148;48.972;12.794;2023-05-08T16:47:51;6.30;;;5.70;;
27758;SDS011;15148;48.972;12.794;2023-05-08T16:52:53;7.20;;;5.18;;
27758;SDS011;15148;48.972;12.794;2023-05-08T16:57:55;6.05;;;5.55;;
27758;SDS011;15148;48.972;12.794;2023-05-08T17:02:57;9.15;;;7.55;;
27758;SDS011;15148;48.972;12.794;2023-05-08T17:07:59;6.07;;;5.32;;
27758;SDS011;15148;48.972;12.794;2023-05-08T17:13:01;6.55;;;5.93;;
27758;SDS011;15148;48.972;12.794;2023-05-08T17:18:03;6.72;;;6.10;;
27758;SDS011;15148;48.972;12.794;2023-05-08T17:23:05;7.07;;;6.38;;
27758;SDS011;15148;48.972;12.794;2023-05-08T17:28:07;6.25;;;5.65;;
27758;SDS011;15148;48.972;12.794;2023-05-08T17:33:09;5.75;;;5.25;;
27758;SDS011;15148;48.972;12.794;2023-05-08T17:38:11;6.75;;;5.22;;
27758;SDS011;15148;48.972;12.794;2023-05-08T17:43:12;6.00;;;5.40;;
27758;SDS011;15148;48.972;12.794;2023-05-08T17:48:14;5.82;;;5.32;;
27758;SDS011;15148;48.972;12.794;2023-05-08T17:53:16;7.07;;;6.40;;
27758;SDS011;15148;48.972;12.794;2023-05-08T17:58:18;6.18;;;5.57;;
27758;SDS011;15148;48.972;12.794;2023-05-08T18:03:19;5.95;;;5.45;;
27758;SDS011;15148;48.972;12.794;2023-05-08T18:08:21;6.50;;;5.90;;
27758;SDS011;15148;48.972;12.794;2023-05-08T18:13:23;7.03;;;6.28;;
27758;SDS011;15148;48.972;12.794;2023-05-08T18:18:25;6.38;;;5.70;;
27758;SDS011;15148;48.972;12.794;2023-05-08T18:23:27;6.47;;;5.88;;
27758;SDS011;15148;48.972;12.794;2023-05-08T18:28:29;6.43;;;5.90;;
27758;SDS011;15148;48.972;12.794;2023-05-08T18:33:31;8.63;;;6.10;;
27758;SDS011;15148;48.972;12.794;2023-05-08T18:38:33;7.07;;;6.38;;
27758;SDS011;15148;48.972;12.794;2023-05-08T18:43:35;6.65;;;5.97;;
27758;SDS011;15148;48.972;12.794;2023-05-08T18:48:37;6.90;;;6.13;;
27758;SDS011;15148;48.972;12.794;2023-05-08T18:53:39;11.98;;;9.15;;
27758;SDS011;15148;48.972;12.794;2023-05-08T18:58:41;8.43;;;7.63;;
27758;SDS011;15148;48.972;12.794;2023-05-08T19:03:43;10.30;;;8.02;;
27758;SDS011;15148;48.972;12.794;2023-05-08T19:08:45;9.63;;;8.35;;
27758;SDS011;15148;48.972;12.794;2023-05-08T19:13:48;8.85;;;7.30;;
27758;SDS011;15148;48.972;12.794;2023-05-08T19:18:52;7.13;;;6.22;;
27758;SDS011;15148;48.972;12.794;2023-05-08T19:23:53;6.55;;;5.90;;
27758;SDS011;15148;48.972;12.794;2023-05-08T19:28:55;6.95;;;6.18;;
27758;SDS011;15148;48.972;12.794;2023-05-08T19:33:57;9.23;;;7.22;;
27758;SDS011;15148;48.972;12.794;2023-05-08T19:38:59;7.03;;;6.18;;
27758;SDS011;15148;48.972;12.794;2023-05-08T19:44:02;8.80;;;5.85;;
27758;SDS011;15148;48.972;12.794;2023-05-08T19:49:04;7.55;;;6.75;;
27758;SDS011;15148;48.972;12.794;2023-05-08T19:54:06;6.05;;;5.45;;
27758;SDS011;15148;48.972;12.794;2023-05-08T19:59:08;11.43;;;5.45;;
27758;SDS011;15148;48.972;12.794;2023-05-08T20:04:09;6.70;;;5.75;;
27758;SDS011;15148;48.972;12.794;2023-05-08T20:09:11;6.20;;;5.60;;
27758;SDS011;15148;48.972;12.794;2023-05-08T20:14:13;7.72;;;6.90;;
27758;SDS011;15148;48.972;12.794;2023-05-08T20:19:15;6.20;;;5.60;;
27758;SDS011;15148;48.972;12.794;2023-05-08T20:24:17;6.38;;;5.53;;
27758;SDS011;15148;48.972;12.794;2023-05-08T20:29:19;7.60;;;5.20;;
27758;SDS011;15148;48.972;12.794;2023-05-08T20:34:23;5.07;;;4.68;;
27758;SDS011;15148;48.972;12.794;2023-05-08T20:39:25;8.13;;;5.57;;
27758;SDS011;15148;48.972;12.794;2023-05-08T20:44:27;10.02;;;4.90;;
27758;SDS011;15148;48.972;12.794;2023-05-08T20:49:29;6.18;;;5.60;;
27758;SDS011;15148;48.972;12.794;2023-05-08T20:54:31;5.78;;;5.28;;
27758;SDS011;15148;48.972;12.794;2023-05-08T20:59:33;15.55;;;8.45;;
27758;SDS011;15148;48.972;12.794;2023-05-08T21:04:35;7.40;;;6.10;;
27758;SDS011;15148;48.972;12.794;2023-05-08T21:09:38;6.70;;;5.20;;
27758;SDS011;15148;48.972;12.794;2023-05-08T21:14:40;9.05;;;5.35;;
27758;SDS011;15148;48.972;12.794;2023-05-08T21:19:44;5.40;;;4.43;;
27758;SDS011;15148;48.972;12.794;2023-05-08T21:24:46;5.45;;;4.40;;
27758;SDS011;15148;48.972;12.794;2023-05-08T21:29:48;5.55;;;4.72;;
27758;SDS011;15148;48.972;12.794;2023-05-08T21:34:49;5.07;;;4.55;;
27758;SDS011;15148;48.972;12.794;2023-05-08T21:39:51;5.30;;;4.80;;
27758;SDS011;15148;48.972;12.794;2023-05-08T21:44:54;5.82;;;5.28;;
27758;SDS011;15148;48.972;12.794;2023-05-08T21:49:56;6.05;;;4.80;;
27758;SDS011;15148;48.972;12.794;2023-05-08T21:54:58;5.28;;;4.85;;
27758;SDS011;15148;48.972;12.794;2023-05-08T22:00:00;5.10;;;4.60;;
27758;SDS011;15148;48.972;12.794;2023-05-08T22:05:02;5.35;;;4.85;;
27758;SDS011;15148;48.972;12.794;2023-05-08T22:10:07;5.20;;;4.70;;
27758;SDS011;15148;48.972;12.794;2023-05-08T22:15:10;5.28;;;4.78;;
27758;SDS011;15148;48.972;12.794;2023-05-08T22:20:29;4.43;;;4.03;;
27758;SDS011;15148;48.972;12.794;2023-05-08T22:25:31;5.15;;;4.65;;
27758;SDS011;15148;48.972;12.794;2023-05-08T22:30:33;8.70;;;4.75;;
27758;SDS011;15148;48.972;12.794;2023-05-08T22:35:34;5.78;;;4.70;;
27758;SDS011;15148;48.972;12.794;2023-05-08T22:40:36;5.68;;;4.82;;
27758;SDS011;15148;48.972;12.794;2023-05-08T22:45:38;5.53;;;4.93;;
27758;SDS011;15148;48.972;12.794;2023-05-08T22:50:40;5.75;;;4.70;;
27758;SDS011;15148;48.972;12.794;2023-05-08T22:55:42;5.28;;;4.75;;
27758;SDS011;15148;48.972;12.794;2023-05-08T23:00:44;5.05;;;4.57;;
27758;SDS011;15148;48.972;12.794;2023-05-08T23:05:46;5.63;;;4.47;;
27758;SDS011;15148;48.972;12.794;2023-05-08T23:10:49;5.22;;;4.72;;
27758;SDS011;15148;48.972;12.794;2023-05-08T23:15:50;5.65;;;4.80;;
27758;SDS011;15148;48.972;12.794;2023-05-08T23:20:52;6.32;;;4.93;;
27758;SDS011;15148;48.972;12.794;2023-05-08T23:25:54;5.10;;;4.70;;
27758;SDS011;15148;48.972;12.794;2023-05-08T23:30:56;6.85;;;4.95;;
27758;SDS011;15148;48.972;12.794;2023-05-08T23:35:58;5.93;;;5.43;;
27758;SDS011;15148;48.972;12.794;2023-05-08T23:41:00;6.18;;;4.45;;
27758;SDS011;15148;48.972;12.794;2023-05-08T23:46:02;6.75;;;4.97;;
27758;SDS011;15148;48.972;12.794;2023-05-08T23:51:04;5.80;;;5.07;;
27758;SDS011;15148;48.972;12.794;2023-05-08T23:56:06;5.65;;;4.80;;
